Terminal Aerodrome Forecast
Issued by NWS Grand Forks, ND

Home | Current Version | Previous Version | Text Only | Print | Product List | Glossary Off
Versions: 1 2 3 4 5 6 7 8 9 10 11 12 13 14 15 16 17 18 19 20 21

000
FTUS43 KFGF 240153 AAA
TAFFAR
TAF AMD
KFAR 240153Z 2402/2424 12005KT 4SM BR BKN008 OVC015
     FM240500 02005KT P6SM OVC010
     FM240800 36007KT 4SM BR BKN010
     FM241000 36009KT 2SM BR BKN006
     FM241500 36012KT P6SM SCT040=

USA.gov is the U.S. government's official web portal to all federal, state and local government web resources and services.